Time;durP1;ratioP1;P1;durP2;ratioP2;P2;SDS_P1;SDS_P2;PMS_P1;PMS_P2;Temp;Humidity;BMP_temperature;BMP_pressure;BME280_temperature;BME280_humidity;BME280_pressure;Samples;Min_cycle;Max_cycle;Signal;HPM_P1;HPM_P2
2021/12/09 00:00:43;;;;;;;3.90;2.00;;;;;;;;;;5068975;28;20482;-74
2021/12/09 00:03:13;;;;;;;6.07;2.30;;;;;;;;;;5072047;28;20515;-74
2021/12/09 00:05:43;;;;;;;8.63;2.85;;;;;;;;;;5072695;28;20058;-74
2021/12/09 00:08:09;;;;;;;2.22;1.20;;;;;;;;;;5070447;28;20121;-74
2021/12/09 00:10:36;;;;;;;3.22;1.30;;;;;;;;;;5070134;28;20038;-74
2021/12/09 00:13:05;;;;;;;1.48;1.08;;;;;;;;;;5069902;28;20025;-74
2021/12/09 00:15:31;;;;;;;1.40;1.10;;;;;;;;;;5070364;28;20045;-74
2021/12/09 00:17:58;;;;;;;1.55;0.80;;;;;;;;;;5072672;28;20484;-75
2021/12/09 00:20:24;;;;;;;2.13;1.00;;;;;;;;;;5072300;28;20028;-74
2021/12/09 00:22:50;;;;;;;18.30;5.47;;;;;;;;;;5069600;28;20027;-74
2021/12/09 00:25:17;;;;;;;23.35;6.82;;;;;;;;;;5070211;28;20051;-74
2021/12/09 00:27:43;;;;;;;15.15;5.22;;;;;;;;;;5069699;28;20077;-74
2021/12/09 00:30:11;;;;;;;20.52;5.70;;;;;;;;;;5071720;28;20501;-74
2021/12/09 00:32:38;;;;;;;22.85;7.00;;;;;;;;;;5071904;28;20035;-74
2021/12/09 00:35:05;;;;;;;17.05;5.55;;;;;;;;;;5069760;28;20486;-74
2021/12/09 00:37:41;;;;;;;14.35;3.80;;;;;;;;;;5071159;28;20024;-73
2021/12/09 00:40:08;;;;;;;8.20;3.00;;;;;;;;;;5069150;28;20027;-74
2021/12/09 00:42:35;;;;;;;8.70;2.90;;;;;;;;;;5069731;28;20021;-74
2021/12/09 00:45:02;;;;;;;6.47;2.53;;;;;;;;;;5071956;28;20068;-74
2021/12/09 00:47:30;;;;;;;3.92;1.67;;;;;;;;;;5070609;28;20067;-74
2021/12/09 00:49:57;;;;;;;3.47;1.90;;;;;;;;;;5069498;28;20039;-74
2021/12/09 00:52:27;;;;;;;5.38;1.80;;;;;;;;;;5069696;28;20025;-74
2021/12/09 00:54:55;;;;;;;4.07;1.70;;;;;;;;;;5069466;28;20501;-74
2021/12/09 00:57:22;;;;;;;3.90;1.50;;;;;;;;;;5054056;28;20017;-74
2021/12/09 00:59:48;;;;;;;2.38;1.30;;;;;;;;;;5068420;28;20509;-74
2021/12/09 01:02:15;;;;;;;3.47;1.30;;;;;;;;;;5067858;28;20028;-74
2021/12/09 01:04:42;;;;;;;2.08;1.00;;;;;;;;;;5069476;28;20028;-74
2021/12/09 01:07:08;;;;;;;2.30;1.35;;;;;;;;;;5067921;28;20025;-74
2021/12/09 01:09:35;;;;;;;3.72;1.13;;;;;;;;;;5068925;28;20021;-75
2021/12/09 01:12:02;;;;;;;2.25;1.35;;;;;;;;;;5071387;28;20043;-74
2021/12/09 01:14:28;;;;;;;4.07;1.55;;;;;;;;;;5069953;28;20527;-74
2021/12/09 01:16:54;;;;;;;1.50;0.98;;;;;;;;;;5070346;28;20024;-75
2021/12/09 01:19:21;;;;;;;1.13;0.80;;;;;;;;;;5068916;28;20505;-74
2021/12/09 01:21:47;;;;;;;0.65;0.50;;;;;;;;;;5069155;28;20435;-74
2021/12/09 01:24:14;;;;;;;0.50;0.50;;;;;;;;;;5069655;28;20028;-74
2021/12/09 01:26:40;;;;;;;2.33;0.73;;;;;;;;;;5071390;28;20055;-74
2021/12/09 01:29:15;;;;;;;0.68;0.60;;;;;;;;;;5068747;28;20026;-74
2021/12/09 01:31:48;;;;;;;2.35;0.50;;;;;;;;;;5068908;28;20031;-74
2021/12/09 01:34:16;;;;;;;1.20;0.50;;;;;;;;;;5068588;28;20504;-74
2021/12/09 01:36:42;;;;;;;4.45;1.05;;;;;;;;;;5068864;28;20032;-74
2021/12/09 01:39:11;;;;;;;1.30;0.73;;;;;;;;;;5069868;28;20024;-74
2021/12/09 01:41:37;;;;;;;1.63;0.80;;;;;;;;;;5070806;28;20035;-74
2021/12/09 01:44:05;;;;;;;0.90;0.90;;;;;;;;;;5068408;28;20029;-74
2021/12/09 01:46:31;;;;;;;3.35;1.10;;;;;;;;;;5068534;28;20393;-74
2021/12/09 01:48:57;;;;;;;1.88;0.80;;;;;;;;;;5068517;28;20021;-74
2021/12/09 01:51:25;;;;;;;1.00;0.82;;;;;;;;;;5068632;28;20024;-74
2021/12/09 01:53:52;;;;;;;2.95;0.80;;;;;;;;;;5071211;28;20485;-74
2021/12/09 01:56:21;;;;;;;3.95;1.00;;;;;;;;;;5068639;28;20051;-74
2021/12/09 01:58:49;;;;;;;3.50;0.93;;;;;;;;;;5067995;28;20027;-74
2021/12/09 02:01:15;;;;;;;2.67;1.00;;;;;;;;;;5068139;28;20519;-74
2021/12/09 02:03:41;;;;;;;3.38;1.30;;;;;;;;;;5068152;28;20524;-74
2021/12/09 02:06:08;;;;;;;4.13;1.75;;;;;;;;;;5070215;28;20093;-74
2021/12/09 02:08:34;;;;;;;5.20;1.90;;;;;;;;;;5069100;28;20020;-74
2021/12/09 02:11:00;;;;;;;3.85;2.00;;;;;;;;;;5068005;28;20020;-74
2021/12/09 02:13:27;;;;;;;3.00;1.55;;;;;;;;;;5068260;28;20029;-74
2021/12/09 02:15:55;;;;;;;3.47;1.60;;;;;;;;;;5067643;28;20048;-74
2021/12/09 02:18:23;;;;;;;4.32;1.90;;;;;;;;;;5052183;28;20100;-74
2021/12/09 02:21:09;;;;;;;5.38;2.30;;;;;;;;;;5067243;28;20034;-74
2021/12/09 02:23:37;;;;;;;6.20;1.70;;;;;;;;;;5069090;28;20028;-74
2021/12/09 02:26:04;;;;;;;4.55;1.65;;;;;;;;;;5067982;28;20028;-73
2021/12/09 02:28:30;;;;;;;4.60;1.35;;;;;;;;;;5067706;28;20416;-73
2021/12/09 02:30:57;;;;;;;5.03;1.73;;;;;;;;;;5067816;28;20021;-74
2021/12/09 02:33:23;;;;;;;4.63;1.30;;;;;;;;;;5069178;28;20070;-74
2021/12/09 02:35:49;;;;;;;2.35;1.52;;;;;;;;;;5070987;28;20036;-74
2021/12/09 02:38:16;;;;;;;6.00;1.90;;;;;;;;;;5067116;28;20020;-74
2021/12/09 02:40:43;;;;;;;4.88;1.60;;;;;;;;;;5066463;28;20037;-74
2021/12/09 02:43:09;;;;;;;6.00;1.67;;;;;;;;;;5067402;28;20016;-73
2021/12/09 02:45:37;;;;;;;4.03;1.30;;;;;;;;;;5067824;28;20029;-74
2021/12/09 02:48:03;;;;;;;7.10;1.58;;;;;;;;;;5070018;28;20017;-74
2021/12/09 02:50:29;;;;;;;2.65;1.27;;;;;;;;;;5068512;28;20028;-74
2021/12/09 02:52:56;;;;;;;2.70;1.17;;;;;;;;;;5067138;28;20405;-74
2021/12/09 02:55:22;;;;;;;1.50;1.00;;;;;;;;;;5067646;28;20049;-74
2021/12/09 02:57:52;;;;;;;2.85;0.88;;;;;;;;;;5067461;28;20160;-74
2021/12/09 03:00:20;;;;;;;3.22;1.10;;;;;;;;;;5068548;28;20051;-74
2021/12/09 03:02:47;;;;;;;3.20;1.10;;;;;;;;;;5070622;28;20020;-74
2021/12/09 03:05:13;;;;;;;2.83;1.17;;;;;;;;;;5067183;28;20025;-74
2021/12/09 03:07:42;;;;;;;2.10;1.05;;;;;;;;;;5067390;28;20221;-74
2021/12/09 03:10:19;;;;;;;5.68;1.30;;;;;;;;;;5067544;28;20031;-74
2021/12/09 03:12:46;;;;;;;3.70;1.15;;;;;;;;;;5068909;28;20069;-74
2021/12/09 03:15:13;;;;;;;2.28;1.08;;;;;;;;;;5068685;28;20041;-74
2021/12/09 03:17:40;;;;;;;2.67;0.80;;;;;;;;;;5069650;28;20439;-73
2021/12/09 03:20:10;;;;;;;3.30;1.00;;;;;;;;;;5067062;28;20029;-74
2021/12/09 03:22:38;;;;;;;3.40;1.10;;;;;;;;;;5066111;28;20438;-74
2021/12/09 03:25:05;;;;;;;3.22;1.00;;;;;;;;;;5067356;28;20025;-74
2021/12/09 03:27:32;;;;;;;2.42;1.17;;;;;;;;;;5069982;28;20412;-74
2021/12/09 03:29:58;;;;;;;1.77;0.82;;;;;;;;;;5073852;28;20497;-74
2021/12/09 03:32:25;;;;;;;2.53;1.00;;;;;;;;;;5073399;28;20017;-74
2021/12/09 03:34:51;;;;;;;3.15;0.95;;;;;;;;;;5071321;28;20374;-74
2021/12/09 03:37:21;;;;;;;3.45;1.38;;;;;;;;;;5070916;28;20374;-74
2021/12/09 03:39:47;;;;;;;5.03;1.50;;;;;;;;;;5071193;28;20028;-74
2021/12/09 03:42:15;;;;;;;2.10;1.10;;;;;;;;;;5072605;28;20447;-74
2021/12/09 03:44:43;;;;;;;2.45;1.10;;;;;;;;;;5073223;28;20048;-74
2021/12/09 03:47:11;;;;;;;1.73;1.05;;;;;;;;;;5070769;28;20400;-74
2021/12/09 03:49:38;;;;;;;4.93;1.00;;;;;;;;;;5070856;28;20104;-74
2021/12/09 03:52:04;;;;;;;4.68;1.10;;;;;;;;;;5072078;28;20023;-74
2021/12/09 03:54:31;;;;;;;3.45;1.05;;;;;;;;;;5070651;28;20025;-74
2021/12/09 03:56:57;;;;;;;2.08;1.05;;;;;;;;;;5073395;28;20032;-74
2021/12/09 03:59:24;;;;;;;4.22;1.10;;;;;;;;;;5072562;28;20029;-74
2021/12/09 04:01:51;;;;;;;3.25;1.08;;;;;;;;;;5070738;28;20032;-74
2021/12/09 04:04:17;;;;;;;6.30;1.23;;;;;;;;;;5070394;28;20104;-74
2021/12/09 04:06:45;;;;;;;2.72;1.10;;;;;;;;;;5071110;28;20016;-74
2021/12/09 04:09:13;;;;;;;3.30;0.98;;;;;;;;;;5072205;28;20020;-74
2021/12/09 04:11:39;;;;;;;4.15;1.00;;;;;;;;;;5072637;28;20021;-74
2021/12/09 04:14:06;;;;;;;5.80;1.85;;;;;;;;;;5070580;28;20393;-74
2021/12/09 04:16:33;;;;;;;4.43;1.27;;;;;;;;;;5070087;28;20036;-74
2021/12/09 04:18:59;;;;;;;2.95;1.30;;;;;;;;;;5070034;28;20359;-74
2021/12/09 04:21:26;;;;;;;1.90;1.05;;;;;;;;;;5070806;28;20012;-74
2021/12/09 04:23:52;;;;;;;2.63;1.35;;;;;;;;;;5073267;28;20024;-74
2021/12/09 04:26:19;;;;;;;2.65;1.20;;;;;;;;;;5072016;28;20451;-74
2021/12/09 04:28:46;;;;;;;2.38;0.88;;;;;;;;;;5070291;28;20359;-74
2021/12/09 04:31:12;;;;;;;5.00;1.30;;;;;;;;;;5071621;28;20016;-74
2021/12/09 04:33:38;;;;;;;2.08;0.80;;;;;;;;;;5068506;28;20029;-74
2021/12/09 04:36:05;;;;;;;4.50;0.85;;;;;;;;;;5072536;28;20040;-74
2021/12/09 04:38:31;;;;;;;2.47;0.68;;;;;;;;;;5070397;28;20029;-74
2021/12/09 04:40:58;;;;;;;5.65;0.95;;;;;;;;;;5069661;28;20032;-74
2021/12/09 04:43:24;;;;;;;5.00;1.00;;;;;;;;;;5069614;28;20037;-74
2021/12/09 04:45:51;;;;;;;3.63;0.80;;;;;;;;;;5085495;28;20029;-74
2021/12/09 04:48:17;;;;;;;4.13;0.75;;;;;;;;;;5070190;28;20085;-74
2021/12/09 04:50:44;;;;;;;1.55;0.80;;;;;;;;;;5072236;28;20035;-74
2021/12/09 04:53:11;;;;;;;3.65;1.00;;;;;;;;;;5069469;28;20051;-74
2021/12/09 04:55:37;;;;;;;3.00;0.80;;;;;;;;;;5069375;28;20020;-74
2021/12/09 04:58:07;;;;;;;3.15;1.23;;;;;;;;;;5069426;28;20017;-74
2021/12/09 05:00:37;;;;;;;2.17;0.90;;;;;;;;;;5069360;28;20036;-74
2021/12/09 05:03:07;;;;;;;4.95;0.80;;;;;;;;;;5071243;28;20024;-74
2021/12/09 05:05:44;;;;;;;3.58;1.02;;;;;;;;;;5071454;28;20040;-74
2021/12/09 05:08:12;;;;;;;3.97;1.20;;;;;;;;;;5069744;28;20021;-74
2021/12/09 05:11:03;;;;;;;5.70;1.25;;;;;;;;;;5070811;28;20016;-73
2021/12/09 05:13:30;;;;;;;3.00;0.80;;;;;;;;;;5069083;28;20019;-74
2021/12/09 05:15:57;;;;;;;5.47;1.20;;;;;;;;;;5069200;28;20055;-73
2021/12/09 05:18:27;;;;;;;5.35;1.45;;;;;;;;;;5069311;28;20012;-74
2021/12/09 05:20:55;;;;;;;1.98;1.00;;;;;;;;;;5070971;28;20039;-74
2021/12/09 05:23:22;;;;;;;2.72;1.10;;;;;;;;;;5069534;28;20024;-74
2021/12/09 05:25:49;;;;;;;4.18;1.30;;;;;;;;;;5069090;28;20021;-74
2021/12/09 05:28:16;;;;;;;2.05;1.05;;;;;;;;;;5068919;28;20037;-74
2021/12/09 05:33:33;;;;;;;4.57;2.00;;;;;;;;;;5054510;28;20027;-74
2021/12/09 05:35:59;;;;;;;5.43;2.53;;;;;;;;;;5071109;28;20421;-74
2021/12/09 05:38:25;;;;;;;6.30;2.90;;;;;;;;;;5069558;28;20020;-74
2021/12/09 05:40:52;;;;;;;6.63;2.00;;;;;;;;;;5068639;28;20104;-74
2021/12/09 05:43:19;;;;;;;10.88;2.30;;;;;;;;;;5068400;28;20032;-74
2021/12/09 05:45:46;;;;;;;9.00;2.75;;;;;;;;;;5068313;28;20021;-73
2021/12/09 05:48:13;;;;;;;1.83;1.50;;;;;;;;;;5068946;28;20032;-74
2021/12/09 05:50:41;;;;;;;6.68;1.88;;;;;;;;;;5070990;28;20024;-74
2021/12/09 05:53:07;;;;;;;6.28;2.22;;;;;;;;;;5068077;28;20046;-74
2021/12/09 05:55:34;;;;;;;7.47;2.10;;;;;;;;;;5068286;28;20036;-74
2021/12/09 05:58:01;;;;;;;3.80;1.75;;;;;;;;;;5068385;28;20017;-74
2021/12/09 06:00:28;;;;;;;4.57;1.58;;;;;;;;;;5067987;28;20462;-74
2021/12/09 06:02:54;;;;;;;5.22;1.17;;;;;;;;;;5069985;28;20017;-73
2021/12/09 06:05:21;;;;;;;6.28;1.23;;;;;;;;;;5068661;28;20036;-74
2021/12/09 06:07:48;;;;;;;4.30;1.35;;;;;;;;;;5068638;28;20070;-74
2021/12/09 06:10:15;;;;;;;4.10;1.00;;;;;;;;;;5067188;28;20047;-74
2021/12/09 06:12:41;;;;;;;4.50;1.67;;;;;;;;;;5069299;28;20489;-74
2021/12/09 06:15:08;;;;;;;6.35;1.55;;;;;;;;;;5069749;28;20497;-74
2021/12/09 06:17:34;;;;;;;3.15;1.35;;;;;;;;;;5069448;28;20039;-74
2021/12/09 06:20:00;;;;;;;2.88;1.60;;;;;;;;;;5067949;28;20085;-74
2021/12/09 06:22:27;;;;;;;4.35;1.63;;;;;;;;;;5067871;28;20078;-74
2021/12/09 06:24:53;;;;;;;2.97;1.65;;;;;;;;;;5068126;28;20128;-74
2021/12/09 06:27:19;;;;;;;7.78;1.88;;;;;;;;;;5053208;28;20028;-74
2021/12/09 06:29:46;;;;;;;2.95;1.60;;;;;;;;;;5070784;28;20036;-74
2021/12/09 06:32:12;;;;;;;4.25;1.90;;;;;;;;;;5068136;28;20025;-74
2021/12/09 06:34:38;;;;;;;4.38;1.50;;;;;;;;;;5067728;28;20033;-74
2021/12/09 06:37:05;;;;;;;3.80;1.88;;;;;;;;;;5067685;28;20379;-74
2021/12/09 06:39:31;;;;;;;6.10;1.75;;;;;;;;;;5067945;28;20017;-74
2021/12/09 06:41:57;;;;;;;6.15;2.03;;;;;;;;;;5070134;28;20427;-74
2021/12/09 06:44:24;;;;;;;5.22;2.60;;;;;;;;;;5069333;28;20055;-74
2021/12/09 06:46:50;;;;;;;10.07;4.40;;;;;;;;;;5067723;28;20033;-74
2021/12/09 06:49:16;;;;;;;9.10;5.22;;;;;;;;;;5067568;28;20053;-74
2021/12/09 06:51:43;;;;;;;9.32;4.30;;;;;;;;;;5072257;28;20087;-74
2021/12/09 06:54:09;;;;;;;8.90;4.03;;;;;;;;;;5068944;28;20023;-73
2021/12/09 06:56:35;;;;;;;7.05;3.80;;;;;;;;;;5068973;28;20032;-75
2021/12/09 06:59:03;;;;;;;11.18;4.10;;;;;;;;;;5066807;28;20028;-74
2021/12/09 07:01:29;;;;;;;10.05;4.72;;;;;;;;;;5070225;28;20035;-74
2021/12/09 07:03:56;;;;;;;8.38;4.60;;;;;;;;;;5071210;28;20024;-78
2021/12/09 07:06:22;;;;;;;6.97;4.35;;;;;;;;;;5072354;28;20017;-74
2021/12/09 07:08:50;;;;;;;7.00;3.88;;;;;;;;;;5070496;28;20412;-74
2021/12/09 07:11:19;;;;;;;9.25;3.65;;;;;;;;;;5070305;28;20020;-74
2021/12/09 07:13:47;;;;;;;17.67;10.85;;;;;;;;;;5070675;28;20031;-74
2021/12/09 07:16:13;;;;;;;10.35;6.05;;;;;;;;;;5071253;28;20038;-74
2021/12/09 07:18:39;;;;;;;14.85;6.03;;;;;;;;;;5071272;28;20025;-74
2021/12/09 07:21:07;;;;;;;31.67;14.65;;;;;;;;;;5073439;28;20029;-74
2021/12/09 07:23:34;;;;;;;40.75;17.90;;;;;;;;;;5072306;28;20427;-74
2021/12/09 07:26:00;;;;;;;12.48;5.05;;;;;;;;;;5071163;28;20036;-74
2021/12/09 07:28:27;;;;;;;12.63;5.60;;;;;;;;;;5074915;28;20025;-74
2021/12/09 07:30:53;;;;;;;7.28;2.90;;;;;;;;;;5070602;28;20030;-74
2021/12/09 07:33:20;;;;;;;10.52;3.15;;;;;;;;;;5055180;28;20016;-74
2021/12/09 07:35:46;;;;;;;4.03;2.20;;;;;;;;;;5073562;28;20040;-74
2021/12/09 07:38:13;;;;;;;7.20;3.30;;;;;;;;;;5070679;28;20503;-74
2021/12/09 07:40:40;;;;;;;7.82;3.97;;;;;;;;;;5070350;28;20039;-75
2021/12/09 07:43:06;;;;;;;12.80;4.40;;;;;;;;;;5070358;28;20027;-74
2021/12/09 07:45:33;;;;;;;15.45;4.82;;;;;;;;;;5070705;28;20036;-74
2021/12/09 07:48:00;;;;;;;12.20;4.32;;;;;;;;;;5072631;28;20489;-74
2021/12/09 07:50:28;;;;;;;14.60;4.97;;;;;;;;;;5071412;28;20033;-74
2021/12/09 07:52:55;;;;;;;12.27;4.35;;;;;;;;;;5070651;28;20444;-74
2021/12/09 07:55:22;;;;;;;8.07;3.33;;;;;;;;;;5070152;28;20032;-74
2021/12/09 07:57:49;;;;;;;3.47;1.58;;;;;;;;;;5070747;28;20028;-74
2021/12/09 08:00:34;;;;;;;8.35;2.08;;;;;;;;;;5071491;28;20459;-74
2021/12/09 08:03:02;;;;;;;5.75;1.60;;;;;;;;;;5070267;28;20024;-74
2021/12/09 08:05:29;;;;;;;4.45;1.50;;;;;;;;;;5071272;28;20016;-74
2021/12/09 08:07:56;;;;;;;5.05;2.10;;;;;;;;;;5070219;28;20478;-74
2021/12/09 08:10:23;;;;;;;4.97;1.88;;;;;;;;;;5069508;28;20035;-74
2021/12/09 08:12:50;;;;;;;6.82;2.67;;;;;;;;;;5069651;28;20016;-74
2021/12/09 08:15:17;;;;;;;7.20;2.38;;;;;;;;;;5069062;28;20029;-74
2021/12/09 08:17:46;;;;;;;4.50;1.80;;;;;;;;;;5072695;28;20093;-74
2021/12/09 08:20:15;;;;;;;1.63;1.27;;;;;;;;;;5070171;28;20085;-75
2021/12/09 08:22:42;;;;;;;2.63;1.13;;;;;;;;;;5070114;28;20038;-74
2021/12/09 08:25:10;;;;;;;4.63;2.00;;;;;;;;;;5071013;28;20054;-74
2021/12/09 08:27:37;;;;;;;5.55;1.95;;;;;;;;;;5070040;28;20025;-74
2021/12/09 08:30:06;;;;;;;10.40;2.90;;;;;;;;;;5072461;28;20021;-74
2021/12/09 08:32:33;;;;;;;7.15;1.58;;;;;;;;;;5070806;28;20497;-74
2021/12/09 08:34:59;;;;;;;5.32;1.70;;;;;;;;;;5069655;28;20033;-74
2021/12/09 08:37:26;;;;;;;2.58;1.58;;;;;;;;;;5069827;28;20216;-74
2021/12/09 08:39:52;;;;;;;5.53;2.25;;;;;;;;;;5069472;28;20024;-74
2021/12/09 08:42:19;;;;;;;10.02;3.20;;;;;;;;;;5069068;28;20036;-75
2021/12/09 08:44:45;;;;;;;6.75;3.00;;;;;;;;;;5072394;28;20049;-74
2021/12/09 08:47:12;;;;;;;10.55;3.88;;;;;;;;;;5069327;28;20058;-74
2021/12/09 08:49:38;;;;;;;13.30;4.40;;;;;;;;;;5069065;28;20392;-74
2021/12/09 08:52:05;;;;;;;6.63;2.75;;;;;;;;;;5069447;28;20020;-74
2021/12/09 08:54:32;;;;;;;4.57;2.08;;;;;;;;;;5069387;28;20476;-74
2021/12/09 08:56:59;;;;;;;4.57;2.20;;;;;;;;;;5072318;28;20063;-74
2021/12/09 08:59:26;;;;;;;4.25;1.85;;;;;;;;;;5071723;28;20028;-74
2021/12/09 09:01:54;;;;;;;5.53;2.10;;;;;;;;;;5069307;28;20032;-74
2021/12/09 09:04:21;;;;;;;5.70;2.25;;;;;;;;;;5070947;28;20029;-75
2021/12/09 09:07:00;;;;;;;15.40;4.63;;;;;;;;;;5069397;28;20027;-74
2021/12/09 09:09:32;;;;;;;7.25;3.15;;;;;;;;;;5052841;28;20091;-74
2021/12/09 09:11:59;;;;;;;14.90;8.00;;;;;;;;;;5071551;28;20039;-75
2021/12/09 09:14:25;;;;;;;9.43;5.28;;;;;;;;;;5069791;28;20024;-74
2021/12/09 09:16:51;;;;;;;15.60;8.05;;;;;;;;;;5068976;28;20047;-74
2021/12/09 09:19:18;;;;;;;14.43;7.20;;;;;;;;;;5069162;28;20027;-74
2021/12/09 09:21:44;;;;;;;14.65;6.43;;;;;;;;;;5069124;28;20020;-74
2021/12/09 09:24:10;;;;;;;7.32;2.00;;;;;;;;;;5069276;28;20025;-75
2021/12/09 09:26:37;;;;;;;1.95;1.20;;;;;;;;;;5070451;28;20039;-74
2021/12/09 09:29:03;;;;;;;5.53;2.00;;;;;;;;;;5068155;28;20024;-75
2021/12/09 09:31:32;;;;;;;4.28;2.17;;;;;;;;;;5068689;28;20037;-75
2021/12/09 09:34:02;;;;;;;5.13;2.15;;;;;;;;;;5068998;28;20032;-74
2021/12/09 09:36:29;;;;;;;6.60;2.42;;;;;;;;;;5068889;28;20033;-74
2021/12/09 09:39:00;;;;;;;6.25;2.60;;;;;;;;;;5069989;28;20389;-75
2021/12/09 09:41:32;;;;;;;2.90;1.27;;;;;;;;;;5070888;28;20024;-75
2021/12/09 09:44:10;;;;;;;5.88;1.48;;;;;;;;;;5069356;28;20043;-75
2021/12/09 09:46:36;;;;;;;4.07;2.40;;;;;;;;;;5068079;28;20034;-74
2021/12/09 09:49:03;;;;;;;4.57;1.88;;;;;;;;;;5068611;28;20519;-74
2021/12/09 09:51:30;;;;;;;4.93;2.13;;;;;;;;;;5068314;28;20029;-75
2021/12/09 09:53:57;;;;;;;4.13;1.30;;;;;;;;;;5071021;28;20070;-75
2021/12/09 09:56:24;;;;;;;5.28;2.95;;;;;;;;;;5068985;28;20412;-74
2021/12/09 09:58:53;;;;;;;6.18;1.88;;;;;;;;;;5075777;28;20029;-74
2021/12/09 10:01:20;;;;;;;6.75;2.67;;;;;;;;;;5060336;28;20028;-74
2021/12/09 10:03:48;;;;;;;2.75;1.70;;;;;;;;;;5068420;28;20493;-74
2021/12/09 10:06:18;;;;;;;5.63;1.92;;;;;;;;;;5068600;28;20040;-74
2021/12/09 10:08:45;;;;;;;4.43;1.57;;;;;;;;;;5070709;28;20089;-74
2021/12/09 10:11:11;;;;;;;2.55;1.42;;;;;;;;;;5068025;28;20497;-74
2021/12/09 10:13:41;;;;;;;3.97;1.63;;;;;;;;;;5067788;28;20546;-73
2021/12/09 10:16:18;;;;;;;4.75;1.42;;;;;;;;;;5067896;28;20296;-73
2021/12/09 10:18:46;;;;;;;1.30;0.90;;;;;;;;;;5067944;28;20028;-73
2021/12/09 10:21:13;;;;;;;7.00;2.03;;;;;;;;;;5068806;28;20036;-73
2021/12/09 10:23:42;;;;;;;5.25;1.40;;;;;;;;;;5070913;28;20481;-74
2021/12/09 10:26:17;;;;;;;2.03;1.05;;;;;;;;;;5067529;28;20028;-74
2021/12/09 10:28:50;;;;;;;1.35;0.98;;;;;;;;;;5067866;28;20009;-74
2021/12/09 10:31:18;;;;;;;2.78;1.10;;;;;;;;;;5067596;28;20028;-74
2021/12/09 10:34:05;;;;;;;2.35;1.17;;;;;;;;;;5067809;28;20379;-76
2021/12/09 10:36:42;;;;;;;1.80;1.00;;;;;;;;;;5065580;28;20512;-73
2021/12/09 10:39:17;;;;;;;2.95;1.13;;;;;;;;;;5069691;28;20032;-74
2021/12/09 10:41:44;;;;;;;1.83;1.00;;;;;;;;;;5069330;28;20035;-74
2021/12/09 10:44:11;;;;;;;3.50;1.20;;;;;;;;;;5067193;28;20062;-74
2021/12/09 10:46:56;;;;;;;2.40;1.02;;;;;;;;;;5067039;28;20040;-73
2021/12/09 10:49:24;;;;;;;3.75;1.65;;;;;;;;;;5067275;28;20489;-73
2021/12/09 10:51:58;;;;;;;3.50;1.52;;;;;;;;;;5067606;28;20032;-73
2021/12/09 10:54:35;;;;;;;3.30;1.08;;;;;;;;;;5067286;28;20043;-74
2021/12/09 10:57:21;;;;;;;4.00;1.38;;;;;;;;;;5069746;28;20034;-74
2021/12/09 10:59:47;;;;;;;6.05;2.60;;;;;;;;;;5083021;28;20032;-74
2021/12/09 11:02:14;;;;;;;7.25;2.95;;;;;;;;;;5068116;28;20029;-74
2021/12/09 11:04:40;;;;;;;6.63;2.45;;;;;;;;;;5065495;28;20033;-74
2021/12/09 11:07:31;;;;;;;8.27;2.90;;;;;;;;;;5067231;28;20033;-74
2021/12/09 11:10:17;;;;;;;4.88;2.17;;;;;;;;;;5067363;28;20031;-74
2021/12/09 11:12:51;;;;;;;3.10;1.50;;;;;;;;;;5067855;28;20059;-73
2021/12/09 11:15:19;;;;;;;4.97;1.58;;;;;;;;;;5068005;28;20086;-74
2021/12/09 11:17:49;;;;;;;3.28;1.20;;;;;;;;;;5070191;28;20031;-73
2021/12/09 11:20:15;;;;;;;4.43;1.77;;;;;;;;;;5065718;28;20398;-74
2021/12/09 11:22:44;;;;;;;3.80;1.88;;;;;;;;;;5067137;28;20029;-74
2021/12/09 11:25:36;;;;;;;4.78;1.05;;;;;;;;;;5065587;28;20036;-73
2021/12/09 11:28:09;;;;;;;4.05;0.93;;;;;;;;;;5066908;28;20028;-74
2021/12/09 11:30:59;;;;;;;2.72;1.00;;;;;;;;;;5067168;28;20021;-73
2021/12/09 11:33:40;;;;;;;1.65;0.93;;;;;;;;;;5050370;28;20527;-74
2021/12/09 11:36:09;;;;;;;3.08;1.55;;;;;;;;;;5069370;28;20037;-73
2021/12/09 11:39:05;;;;;;;4.13;1.13;;;;;;;;;;5068417;28;20027;-73
2021/12/09 11:41:34;;;;;;;6.65;3.13;;;;;;;;;;5069973;28;20025;-73
2021/12/09 11:44:00;;;;;;;3.05;1.58;;;;;;;;;;5066332;28;20067;-73
2021/12/09 11:46:26;;;;;;;3.00;1.33;;;;;;;;;;5066959;28;20020;-73
2021/12/09 11:48:53;;;;;;;4.53;0.98;;;;;;;;;;5068308;28;20027;-74
2021/12/09 11:51:20;;;;;;;5.03;1.58;;;;;;;;;;5071278;28;20762;-74
2021/12/09 11:53:53;;;;;;;3.67;1.50;;;;;;;;;;5073708;28;20020;-74
2021/12/09 11:59:38;;;;;;;3.35;1.27;;;;;;;;;;5070552;28;20028;-73
2021/12/09 12:13:32;;;;;;;3.83;1.17;;;;;;;;;;5070210;28;20039;-73
2021/12/09 12:16:20;;;;;;;4.47;1.38;;;;;;;;;;5070229;28;20509;-73
2021/12/09 12:18:56;;;;;;;1.73;1.00;;;;;;;;;;5071520;28;20020;-73
2021/12/09 12:37:43;;;;;;;4.07;1.20;;;;;;;;;;5076194;28;20028;-73
2021/12/09 12:40:10;;;;;;;2.45;1.40;;;;;;;;;;5069760;28;20016;-73
2021/12/09 12:42:47;;;;;;;3.45;0.90;;;;;;;;;;5068234;28;20033;-73
2021/12/09 12:47:54;;;;;;;3.60;1.23;;;;;;;;;;5072602;28;20027;-73
2021/12/09 12:50:22;;;;;;;27.20;1.85;;;;;;;;;;5070268;28;20035;-73
2021/12/09 12:52:49;;;;;;;5.65;1.80;;;;;;;;;;5069559;28;20017;-73
2021/12/09 12:55:20;;;;;;;4.07;1.48;;;;;;;;;;5068533;28;20085;-73
2021/12/09 12:57:51;;;;;;;3.35;1.20;;;;;;;;;;5069164;28;20037;-73
2021/12/09 13:00:42;;;;;;;5.93;1.60;;;;;;;;;;5069414;28;20512;-72
2021/12/09 13:03:23;;;;;;;5.65;1.00;;;;;;;;;;5066609;28;20029;-73
2021/12/09 13:06:08;;;;;;;2.75;1.35;;;;;;;;;;5068009;28;20017;-73
2021/12/09 13:09:08;;;;;;;4.88;1.23;;;;;;;;;;5070331;28;20566;-73
2021/12/09 13:11:52;;;;;;;4.97;1.75;;;;;;;;;;5070238;28;20020;-74
2021/12/09 13:14:23;;;;;;;6.75;1.65;;;;;;;;;;5068882;28;20027;-74
2021/12/09 13:17:01;;;;;;;3.55;1.30;;;;;;;;;;5069103;28;20036;-73
2021/12/09 13:19:51;;;;;;;6.05;1.50;;;;;;;;;;5069139;28;20027;-74
2021/12/09 13:22:35;;;;;;;10.43;1.75;;;;;;;;;;5068538;28;20035;-73
2021/12/09 13:25:22;;;;;;;7.18;1.38;;;;;;;;;;5069756;28;20503;-73
2021/12/09 13:27:55;;;;;;;3.88;1.38;;;;;;;;;;5084622;28;20401;-73
2021/12/09 13:49:02;;;;;;;3.97;1.20;;;;;;;;;;5068547;28;20419;-73
2021/12/09 13:54:18;;;;;;;3.15;1.20;;;;;;;;;;5070436;28;20016;-73
2021/12/09 13:56:45;;;;;;;6.25;1.30;;;;;;;;;;5070802;28;20042;-73
2021/12/09 13:59:19;;;;;;;4.15;1.40;;;;;;;;;;5068002;28;20027;-73
2021/12/09 14:01:45;;;;;;;3.92;1.00;;;;;;;;;;5068393;28;20016;-74
2021/12/09 14:04:14;;;;;;;4.65;1.10;;;;;;;;;;5067611;28;20031;-73
2021/12/09 14:07:20;;;;;;;3.88;1.20;;;;;;;;;;5068004;28;20028;-74
2021/12/09 14:09:40;;;;;;;6.05;1.67;;;;;;;;;;5054614;28;20039;-73
2021/12/09 14:12:07;;;;;;;1.80;1.00;;;;;;;;;;5069759;28;20023;-74
2021/12/09 14:14:45;;;;;;;5.32;1.40;;;;;;;;;;5068797;28;20038;-73
2021/12/09 14:17:16;;;;;;;2.13;1.00;;;;;;;;;;5068623;28;20036;-74
2021/12/09 14:19:58;;;;;;;;;;;;;;;;;;5067732;28;20028;-73
2021/12/09 14:22:28;;;;;;;3.03;1.10;;;;;;;;;;5068325;28;20297;-74
2021/12/09 14:24:55;;;;;;;2.50;1.00;;;;;;;;;;5067695;28;20019;-73
2021/12/09 14:27:22;;;;;;;3.30;1.20;;;;;;;;;;5067786;28;20025;-73
2021/12/09 14:29:52;;;;;;;4.45;1.30;;;;;;;;;;5070812;28;20029;-73
2021/12/09 14:32:20;;;;;;;5.30;1.30;;;;;;;;;;5067663;28;20032;-74
2021/12/09 14:34:48;;;;;;;4.25;1.20;;;;;;;;;;5068061;28;20025;-73
2021/12/09 14:37:15;;;;;;;4.88;1.10;;;;;;;;;;5067456;28;20036;-73
2021/12/09 14:39:41;;;;;;;4.75;1.58;;;;;;;;;;5068504;28;20033;-73
2021/12/09 14:42:12;;;;;;;2.75;1.20;;;;;;;;;;5069508;28;20613;-73
2021/12/09 14:44:40;;;;;;;7.40;1.10;;;;;;;;;;5068566;28;20036;-73
2021/12/09 14:47:12;;;;;;;6.25;1.17;;;;;;;;;;5067645;28;20021;-73
2021/12/09 14:49:45;;;;;;;3.97;1.00;;;;;;;;;;5067398;28;20034;-73
2021/12/09 14:52:12;;;;;;;5.93;1.20;;;;;;;;;;5068137;28;20027;-73
2021/12/09 14:54:38;;;;;;;3.97;1.20;;;;;;;;;;5068743;28;20025;-73
2021/12/09 14:57:07;;;;;;;3.80;1.10;;;;;;;;;;5069176;28;20082;-72
2021/12/09 14:59:35;;;;;;;4.32;1.40;;;;;;;;;;5071018;28;20562;-73
2021/12/09 15:02:08;;;;;;;3.75;1.40;;;;;;;;;;5067318;28;20027;-73
2021/12/09 15:04:39;;;;;;;3.22;1.02;;;;;;;;;;5069065;28;20024;-73
2021/12/09 15:07:08;;;;;;;7.00;1.50;;;;;;;;;;5067308;28;20027;-73
2021/12/09 15:09:35;;;;;;;11.40;1.80;;;;;;;;;;5067438;28;20078;-73
2021/12/09 15:12:01;;;;;;;5.38;1.50;;;;;;;;;;5069296;28;20392;-73
2021/12/09 15:14:33;;;;;;;5.32;1.05;;;;;;;;;;5068212;28;20497;-74
2021/12/09 15:17:09;;;;;;;5.15;1.70;;;;;;;;;;5066881;28;20041;-73
2021/12/09 15:19:36;;;;;;;7.97;2.08;;;;;;;;;;5066729;28;20389;-73
2021/12/09 15:22:03;;;;;;;4.38;1.60;;;;;;;;;;5071198;28;20031;-73
2021/12/09 15:24:29;;;;;;;5.40;1.63;;;;;;;;;;5071220;28;20074;-73
2021/12/09 15:26:56;;;;;;;5.78;1.80;;;;;;;;;;5073847;28;20025;-73
2021/12/09 15:29:22;;;;;;;7.15;1.63;;;;;;;;;;5071268;28;20491;-73
2021/12/09 15:31:55;;;;;;;4.05;1.20;;;;;;;;;;5070944;28;20392;-74
2021/12/09 15:34:24;;;;;;;5.95;1.58;;;;;;;;;;5072024;28;20027;-74
2021/12/09 15:36:55;;;;;;;9.30;1.80;;;;;;;;;;5070579;28;20037;-73
2021/12/09 15:39:23;;;;;;;8.43;2.00;;;;;;;;;;5071037;28;20460;-73
2021/12/09 15:42:00;;;;;;;8.68;2.70;;;;;;;;;;5072502;28;20396;-74
2021/12/09 15:44:27;;;;;;;11.43;2.72;;;;;;;;;;5072390;28;20079;-73
2021/12/09 15:46:58;;;;;;;8.43;3.05;;;;;;;;;;5070689;28;20024;-73
2021/12/09 15:49:24;;;;;;;;;;;;;;;;;;5071142;28;20028;-73
2021/12/09 15:51:52;;;;;;;7.35;1.70;;;;;;;;;;5070564;28;19912;-73